Allisonia, Virginia
Current Conditions -  °F | °C
As of 10:36 AM on Sunday 23 Nov 2014 (Local Time) from KPSK Reporting Station
Broken Clouds Broken Clouds  
Wind Chill: 45°   Ceiling: 6000
Heat Index: 45°   Visibility: 10mi
Dew Point: 28°   Wind: 0mph
Humidity: 53%   Direction: NA
Pressure: 30.17"   Gusts: NA
Location:  36.9752°N, 80.6434°W
Report Text: KPSK 231536Z AUTO 00000KT 10SM BKN060 07/M02 A3017 RMK AO2
Loading
Personal Weather Stations






























Interactive Weather Map New forecast layout! Learn more

10-Day Weather Forecast

Advertisements
Track Severe Weather on mobile